Time;durP1;ratioP1;P1;durP2;ratioP2;P2;SDS_P1;SDS_P2;PMS_P1;PMS_P2;Temp;Humidity;BMP_temperature;BMP_pressure;BME280_temperature;BME280_humidity;BME280_pressure;Samples;Min_cycle;Max_cycle;Signal;HPM_P1;HPM_P2
2021/08/02 00:01:53;;;;;;;1.37;1.27;;;15.40;99.90;;;;;;1978252;72;21046;-73
2021/08/02 00:04:20;;;;;;;2.00;1.40;;;15.40;99.90;;;;;;1984828;72;21134;-73
2021/08/02 00:06:46;;;;;;;3.33;1.30;;;15.40;99.90;;;;;;1968209;72;21135;-73
2021/08/02 00:09:12;;;;;;;1.27;1.17;;;15.40;99.90;;;;;;1983330;72;21193;-74
2021/08/02 00:11:38;;;;;;;1.40;1.30;;;15.30;99.90;;;;;;1980069;72;21195;-73
2021/08/02 00:14:04;;;;;;;3.27;1.67;;;15.30;99.90;;;;;;1973497;72;21063;-74
2021/08/02 00:16:30;;;;;;;2.85;1.20;;;15.30;99.90;;;;;;1971995;72;21075;-73
2021/08/02 00:18:56;;;;;;;2.25;1.25;;;15.40;99.90;;;;;;1974494;73;21085;-73
2021/08/02 00:21:22;;;;;;;3.80;1.40;;;15.40;99.90;;;;;;1971242;72;21093;-73
2021/08/02 00:23:48;;;;;;;2.42;1.27;;;15.40;99.90;;;;;;1974099;72;21144;-73
2021/08/02 00:26:15;;;;;;;2.42;1.52;;;15.40;99.90;;;;;;1974659;73;21036;-73
2021/08/02 00:28:41;;;;;;;4.78;1.35;;;15.40;99.90;;;;;;1974422;72;21180;-73
2021/08/02 00:31:07;;;;;;;2.47;1.27;;;15.50;99.90;;;;;;1974582;73;21076;-73
2021/08/02 00:33:33;;;;;;;2.85;1.55;;;15.40;99.90;;;;;;1974609;73;21165;-73
2021/08/02 00:35:59;;;;;;;3.62;1.25;;;15.30;99.90;;;;;;1974551;72;21092;-73
2021/08/02 00:38:25;;;;;;;2.17;1.47;;;15.40;99.90;;;;;;1974183;72;21125;-73
2021/08/02 00:40:52;;;;;;;3.22;1.35;;;15.40;99.90;;;;;;1979100;72;21164;-73
2021/08/02 00:43:18;;;;;;;7.83;2.05;;;15.30;99.90;;;;;;1984964;72;21483;-73
2021/08/02 00:45:44;;;;;;;2.10;1.60;;;15.30;99.90;;;;;;1966894;72;21059;-73
2021/08/02 00:48:10;;;;;;;2.30;1.75;;;15.40;99.90;;;;;;1973977;72;21065;-73
2021/08/02 00:50:36;;;;;;;4.75;1.50;;;15.40;99.90;;;;;;1964728;72;21054;-73
2021/08/02 00:53:03;;;;;;;6.58;1.67;;;15.40;99.90;;;;;;1977118;72;21058;-73
2021/08/02 00:55:29;;;;;;;2.90;1.47;;;15.40;99.90;;;;;;1966264;72;21059;-74
2021/08/02 00:57:55;;;;;;;4.12;1.42;;;15.30;99.90;;;;;;1968054;72;21116;-73
2021/08/02 01:00:21;;;;;;;1.95;1.52;;;15.40;99.90;;;;;;1991551;72;21156;-73
2021/08/02 01:02:47;;;;;;;6.33;1.40;;;15.40;99.90;;;;;;1972072;72;21047;-73
2021/08/02 01:05:13;;;;;;;4.40;1.65;;;15.40;99.90;;;;;;1966756;72;21137;-73
2021/08/02 01:07:39;;;;;;;4.85;1.50;;;15.40;99.90;;;;;;1973921;72;21117;-73
2021/08/02 01:10:05;;;;;;;2.83;1.60;;;15.30;99.90;;;;;;1980745;72;21109;-73
2021/08/02 01:12:31;;;;;;;4.65;1.65;;;15.40;99.90;;;;;;1975360;72;21049;-73
2021/08/02 01:14:58;;;;;;;1.20;1.10;;;15.40;99.90;;;;;;1973128;72;21054;-73
2021/08/02 01:17:24;;;;;;;3.25;1.62;;;15.40;99.90;;;;;;1976955;72;21053;-74
2021/08/02 01:19:50;;;;;;;6.87;1.90;;;15.40;99.90;;;;;;1974442;72;21047;-73
2021/08/02 01:22:16;;;;;;;2.58;1.67;;;15.40;99.90;;;;;;1983537;72;21058;-73
2021/08/02 01:24:43;;;;;;;2.75;1.52;;;15.40;99.90;;;;;;1974442;73;21487;-73
2021/08/02 01:27:09;;;;;;;2.58;1.25;;;15.40;99.90;;;;;;1974497;73;21407;-73
2021/08/02 01:29:35;;;;;;;3.75;1.50;;;15.40;99.90;;;;;;1970149;72;21032;-73
2021/08/02 01:32:01;;;;;;;4.85;1.30;;;15.40;99.90;;;;;;1975648;72;21178;-73
2021/08/02 01:34:27;;;;;;;2.80;1.55;;;15.40;99.90;;;;;;1971723;72;21105;-73
2021/08/02 01:36:53;;;;;;;4.55;1.40;;;15.40;99.90;;;;;;1974437;72;21104;-73
2021/08/02 01:39:19;;;;;;;4.72;1.50;;;15.40;99.90;;;;;;1972367;72;21083;-73
2021/08/02 01:41:46;;;;;;;3.15;1.67;;;15.40;99.90;;;;;;1976302;72;21101;-73
2021/08/02 01:44:12;;;;;;;2.87;1.45;;;15.30;99.90;;;;;;1974624;72;21059;-73
2021/08/02 01:46:38;;;;;;;8.03;1.80;;;15.30;99.90;;;;;;1967531;72;21129;-73
2021/08/02 01:49:04;;;;;;;3.12;1.55;;;15.30;99.90;;;;;;1971296;72;21079;-73
2021/08/02 01:51:30;;;;;;;4.90;1.77;;;15.40;99.90;;;;;;1970604;72;21059;-73
2021/08/02 01:53:56;;;;;;;1.52;1.42;;;15.40;99.90;;;;;;1972242;72;21092;-73
2021/08/02 01:56:22;;;;;;;2.98;1.45;;;15.30;99.90;;;;;;1977122;72;21227;-73
2021/08/02 01:58:48;;;;;;;6.62;1.77;;;15.20;99.90;;;;;;1972361;72;21016;-73
2021/08/02 02:01:15;;;;;;;5.42;1.82;;;15.20;99.90;;;;;;1976239;72;21140;-73
2021/08/02 02:03:41;;;;;;;7.50;1.85;;;15.30;99.90;;;;;;1974511;72;21146;-73
2021/08/02 02:06:07;;;;;;;4.58;1.67;;;15.40;99.90;;;;;;1970793;72;21531;-73
2021/08/02 02:08:33;;;;;;;4.47;1.50;;;15.30;99.90;;;;;;1973925;72;21530;-73
2021/08/02 02:10:59;;;;;;;3.58;1.65;;;15.30;99.90;;;;;;1974622;72;21552;-74
2021/08/02 02:13:25;;;;;;;5.22;1.90;;;15.30;99.90;;;;;;1980635;72;21573;-74
2021/08/02 02:15:51;;;;;;;3.45;1.80;;;15.20;99.90;;;;;;1974348;73;21530;-73
2021/08/02 02:18:17;;;;;;;3.02;1.35;;;15.30;99.90;;;;;;1974613;72;21516;-73
2021/08/02 02:20:44;;;;;;;4.50;1.60;;;15.40;99.90;;;;;;1974285;72;21137;-73
2021/08/02 02:23:11;;;;;;;7.33;1.60;;;15.20;99.90;;;;;;1972703;72;21120;-73
2021/08/02 02:25:37;;;;;;;3.80;1.85;;;15.30;99.90;;;;;;1971941;72;21116;-73
2021/08/02 02:28:03;;;;;;;3.20;1.40;;;15.40;99.90;;;;;;1969408;72;21066;-73
2021/08/02 02:30:29;;;;;;;4.17;1.52;;;15.30;99.90;;;;;;1976454;72;21047;-73
2021/08/02 02:32:55;;;;;;;4.87;1.55;;;15.30;99.90;;;;;;1975988;72;21059;-73
2021/08/02 02:35:22;;;;;;;9.00;1.77;;;15.30;99.90;;;;;;1974496;73;21111;-73
2021/08/02 02:37:48;;;;;;;2.08;1.57;;;15.30;99.90;;;;;;1974455;72;21059;-73
2021/08/02 02:40:14;;;;;;;3.08;1.32;;;15.30;99.90;;;;;;1971318;72;21027;-73
2021/08/02 02:42:40;;;;;;;8.10;1.47;;;15.30;99.90;;;;;;1976810;72;21051;-73
2021/08/02 02:45:07;;;;;;;7.55;1.70;;;15.40;99.90;;;;;;1974706;72;21059;-73
2021/08/02 02:47:33;;;;;;;3.72;1.40;;;15.40;99.90;;;;;;1973817;72;21141;-73
2021/08/02 02:49:59;;;;;;;2.15;1.25;;;15.40;99.90;;;;;;1974464;72;21036;-73
2021/08/02 02:52:25;;;;;;;3.70;1.62;;;15.30;99.90;;;;;;1967378;72;21050;-74
2021/08/02 02:54:51;;;;;;;4.83;1.50;;;15.30;99.90;;;;;;1983598;72;21116;-74
2021/08/02 02:57:17;;;;;;;1.87;1.60;;;15.30;99.90;;;;;;1974350;72;21125;-73
2021/08/02 02:59:43;;;;;;;3.12;1.55;;;15.30;99.90;;;;;;1969782;72;21549;-73
2021/08/02 03:02:10;;;;;;;1.25;1.15;;;15.30;99.90;;;;;;1975311;72;21477;-73
2021/08/02 03:04:36;;;;;;;4.65;1.55;;;15.30;99.90;;;;;;1971726;72;21468;-74
2021/08/02 03:07:02;;;;;;;2.37;1.25;;;15.30;99.90;;;;;;1971484;72;21104;-73
2021/08/02 03:09:28;;;;;;;1.87;1.67;;;15.30;99.90;;;;;;1961414;72;21062;-73
2021/08/02 03:11:54;;;;;;;2.55;1.25;;;15.20;99.90;;;;;;1968256;72;21128;-71
2021/08/02 03:14:21;;;;;;;6.03;2.08;;;15.20;99.90;;;;;;1968696;72;21089;-71
2021/08/02 03:16:47;;;;;;;1.42;1.32;;;15.30;99.90;;;;;;1975163;72;21128;-73
2021/08/02 03:19:13;;;;;;;5.00;1.62;;;15.30;99.90;;;;;;1963004;72;21206;-73
2021/08/02 03:21:39;;;;;;;4.80;1.72;;;15.20;99.90;;;;;;1983915;72;21020;-74
2021/08/02 03:24:05;;;;;;;5.75;1.47;;;15.20;99.90;;;;;;1974501;73;21059;-73
2021/08/02 03:26:31;;;;;;;6.95;1.50;;;15.20;99.90;;;;;;1971966;72;21054;-73
2021/08/02 03:28:57;;;;;;;2.55;1.30;;;15.20;99.90;;;;;;1985112;72;21066;-73
2021/08/02 03:31:23;;;;;;;9.48;1.50;;;15.20;99.90;;;;;;1972180;72;21036;-73
2021/08/02 03:33:49;;;;;;;4.80;1.70;;;15.20;99.90;;;;;;1979565;72;21141;-73
2021/08/02 03:36:16;;;;;;;4.22;1.62;;;15.10;99.90;;;;;;1973230;72;21063;-73
2021/08/02 03:38:42;;;;;;;1.80;1.32;;;15.10;99.90;;;;;;1981577;72;21172;-73
2021/08/02 03:41:08;;;;;;;5.25;1.60;;;15.10;99.90;;;;;;1973175;72;21055;-73
2021/08/02 03:43:34;;;;;;;4.15;1.65;;;15.10;99.90;;;;;;1974566;72;21036;-73
2021/08/02 03:46:00;;;;;;;6.62;1.70;;;15.20;99.90;;;;;;1974179;72;21059;-73
2021/08/02 03:48:26;;;;;;;3.20;1.50;;;15.20;99.90;;;;;;1974520;72;21067;-73
2021/08/02 03:50:52;;;;;;;24.80;1.95;;;15.20;99.90;;;;;;1970862;72;21124;-73
2021/08/02 03:53:19;;;;;;;3.17;1.40;;;15.10;99.90;;;;;;1977773;72;21044;-73
2021/08/02 03:55:45;;;;;;;4.10;1.62;;;15.20;99.90;;;;;;1968835;72;21051;-73
2021/08/02 03:58:11;;;;;;;3.20;1.47;;;15.30;99.90;;;;;;1974351;73;21040;-73
2021/08/02 04:00:37;;;;;;;6.65;1.42;;;15.20;99.90;;;;;;1970812;72;21168;-73
2021/08/02 04:03:07;;;;;;;6.08;1.40;;;15.30;99.90;;;;;;1970980;72;21068;-73
2021/08/02 04:05:31;;;;;;;1.92;1.45;;;15.30;99.90;;;;;;1970622;72;21096;-74
2021/08/02 04:07:58;;;;;;;2.33;1.47;;;15.30;99.90;;;;;;1976599;72;21047;-73
2021/08/02 04:10:26;;;;;;;1.50;1.40;;;15.40;99.90;;;;;;1985083;72;21132;-73
2021/08/02 04:12:52;;;;;;;6.58;1.60;;;15.30;99.90;;;;;;1975509;72;21183;-73
2021/08/02 04:15:18;;;;;;;2.35;1.42;;;15.40;99.90;;;;;;1991550;72;21020;-73
2021/08/02 04:17:44;;;;;;;2.00;1.20;;;15.40;99.90;;;;;;1969264;72;21117;-73
2021/08/02 04:20:10;;;;;;;3.35;1.85;;;15.40;99.90;;;;;;1975746;72;21486;-73
2021/08/02 04:22:37;;;;;;;3.35;1.22;;;15.40;99.90;;;;;;1987382;72;21424;-73
2021/08/02 04:25:03;;;;;;;2.33;1.40;;;15.40;99.90;;;;;;1974401;73;21606;-77
2021/08/02 04:27:29;;;;;;;23.52;2.20;;;15.40;99.90;;;;;;1978695;72;21466;-73
2021/08/02 04:29:55;;;;;;;4.15;1.65;;;15.40;99.90;;;;;;1983088;72;21488;-73
2021/08/02 04:32:21;;;;;;;4.72;1.60;;;15.40;99.90;;;;;;1973474;72;21508;-76
2021/08/02 04:34:47;;;;;;;5.60;1.67;;;15.40;99.90;;;;;;1968407;72;21479;-76
2021/08/02 04:37:13;;;;;;;5.37;2.27;;;15.30;99.90;;;;;;1974441;73;21044;-76
2021/08/02 04:39:39;;;;;;;1.85;1.42;;;15.40;99.90;;;;;;1973444;72;21128;-76
2021/08/02 04:42:06;;;;;;;2.60;1.55;;;15.40;99.90;;;;;;1990612;72;21027;-76
2021/08/02 04:44:32;;;;;;;2.20;1.20;;;15.50;99.90;;;;;;1970752;72;21057;-76
2021/08/02 04:46:58;;;;;;;3.70;1.50;;;15.50;99.90;;;;;;1972205;72;21107;-76
2021/08/02 04:49:24;;;;;;;4.75;1.47;;;15.50;99.90;;;;;;1976088;72;21064;-76
2021/08/02 04:51:50;;;;;;;4.35;1.60;;;15.50;99.90;;;;;;1974226;72;21024;-76
2021/08/02 04:54:16;;;;;;;3.67;1.40;;;15.50;99.90;;;;;;1967043;72;21066;-76
2021/08/02 04:56:42;;;;;;;2.20;1.20;;;15.50;99.90;;;;;;1980535;72;21114;-77
2021/08/02 04:59:08;;;;;;;3.10;1.55;;;15.50;99.90;;;;;;1974373;72;21132;-77
2021/08/02 05:01:35;;;;;;;1.25;1.10;;;15.60;99.90;;;;;;1980780;72;21028;-77
2021/08/02 05:04:01;;;;;;;2.92;1.32;;;15.50;99.90;;;;;;1972780;72;21059;-77
2021/08/02 05:06:27;;;;;;;2.00;1.60;;;15.70;99.90;;;;;;1978904;72;21066;-77
2021/08/02 05:08:53;;;;;;;3.40;1.40;;;15.80;99.90;;;;;;1975801;72;21090;-78
2021/08/02 05:11:19;;;;;;;5.30;1.50;;;15.80;99.90;;;;;;1971081;72;21039;-78
2021/08/02 05:13:45;;;;;;;5.50;1.22;;;15.80;99.90;;;;;;1987213;72;21120;-82
2021/08/02 05:16:13;;;;;;;2.05;1.30;;;15.70;99.90;;;;;;1974011;72;21059;-77
2021/08/02 05:18:39;;;;;;;3.08;1.80;;;15.80;99.90;;;;;;1972627;72;21071;-77
2021/08/02 05:21:05;;;;;;;5.08;1.60;;;15.70;99.90;;;;;;1979100;72;21059;-77
2021/08/02 05:23:32;;;;;;;2.70;1.32;;;15.80;99.90;;;;;;1974518;73;21125;-76
2021/08/02 05:25:58;;;;;;;4.53;2.33;;;15.90;99.90;;;;;;1969766;72;21073;-77
2021/08/02 05:28:26;;;;;;;1.55;1.40;;;15.90;99.90;;;;;;1975095;72;21510;-77
2021/08/02 05:30:52;;;;;;;3.27;1.50;;;16.10;99.90;;;;;;1977482;72;21596;-77
2021/08/02 05:33:18;;;;;;;1.35;1.17;;;16.20;99.90;;;;;;1967151;72;21471;-78
2021/08/02 05:35:44;;;;;;;2.92;1.67;;;16.20;99.90;;;;;;1963643;72;21523;-77
2021/08/02 05:38:10;;;;;;;7.65;1.80;;;16.30;99.90;;;;;;1985050;72;21440;-78
2021/08/02 05:40:36;;;;;;;4.80;1.57;;;16.30;99.90;;;;;;1982798;72;21572;-78
2021/08/02 05:43:03;;;;;;;3.15;1.87;;;16.30;99.90;;;;;;1972328;72;21600;-78
2021/08/02 05:45:29;;;;;;;5.33;1.70;;;16.40;99.90;;;;;;1968017;72;21542;-78
2021/08/02 05:47:55;;;;;;;3.12;1.62;;;16.30;99.90;;;;;;1970826;72;21094;-77
2021/08/02 05:50:22;;;;;;;5.30;1.55;;;16.20;99.90;;;;;;1968620;72;21050;-79
2021/08/02 05:52:48;;;;;;;4.75;1.82;;;16.20;99.90;;;;;;1974932;72;21149;-78
2021/08/02 05:55:16;;;;;;;5.42;1.70;;;16.10;99.90;;;;;;1970155;72;21136;-76
2021/08/02 05:57:42;;;;;;;5.78;1.55;;;16.20;99.90;;;;;;1971464;72;21185;-76
2021/08/02 06:00:08;;;;;;;3.55;1.72;;;16.20;99.90;;;;;;1973996;72;21062;-77
2021/08/02 06:02:34;;;;;;;7.42;2.17;;;16.20;99.90;;;;;;1967052;72;21180;-76
2021/08/02 06:05:01;;;;;;;2.02;1.30;;;16.20;99.90;;;;;;1964089;72;21066;-77
2021/08/02 06:07:27;;;;;;;5.55;1.70;;;16.20;99.90;;;;;;1968309;72;21028;-77
2021/08/02 06:09:54;;;;;;;4.60;1.92;;;16.10;99.90;;;;;;1974606;72;21180;-77
2021/08/02 06:12:20;;;;;;;2.83;1.40;;;16.20;99.90;;;;;;1975728;72;21057;-78
2021/08/02 06:14:46;;;;;;;9.15;1.98;;;16.10;99.90;;;;;;1978984;72;21140;-78
2021/08/02 06:17:12;;;;;;;2.60;1.65;;;16.10;99.90;;;;;;1972753;72;21078;-77
2021/08/02 06:19:39;;;;;;;3.40;1.70;;;16.10;99.90;;;;;;1972766;72;21063;-76
2021/08/02 06:22:05;;;;;;;1.50;1.40;;;16.20;99.90;;;;;;1974217;72;21059;-78
2021/08/02 06:24:31;;;;;;;3.27;1.30;;;16.30;99.90;;;;;;1970789;72;21075;-79
2021/08/02 06:26:57;;;;;;;4.45;1.27;;;16.40;99.90;;;;;;1973893;72;21068;-79
2021/08/02 06:29:23;;;;;;;3.17;1.65;;;16.40;99.90;;;;;;1970188;72;21058;-79
2021/08/02 06:31:50;;;;;;;1.92;1.32;;;16.40;99.90;;;;;;1973851;72;21071;-78
2021/08/02 06:34:16;;;;;;;8.95;1.87;;;16.50;99.90;;;;;;1974325;72;21114;-81
2021/08/02 06:36:42;;;;;;;3.20;1.55;;;16.50;99.90;;;;;;1970667;72;21427;-78
2021/08/02 06:39:08;;;;;;;5.65;1.70;;;16.60;99.90;;;;;;1971198;72;21435;-79
2021/08/02 06:41:34;;;;;;;2.83;1.57;;;16.60;99.90;;;;;;1974487;73;21463;-78
2021/08/02 06:44:00;;;;;;;9.43;1.80;;;16.60;99.90;;;;;;1978458;72;21455;-78
2021/08/02 06:46:28;;;;;;;2.90;1.65;;;16.50;99.90;;;;;;1975456;72;21420;-78
2021/08/02 06:48:54;;;;;;;3.70;1.52;;;16.40;99.90;;;;;;1964046;72;21210;-78
2021/08/02 06:51:20;;;;;;;2.85;1.70;;;16.40;99.90;;;;;;1984682;72;21133;-77
2021/08/02 06:53:46;;;;;;;1.75;1.65;;;16.50;99.90;;;;;;1976556;72;21160;-78
2021/08/02 06:56:12;;;;;;;3.67;1.50;;;16.60;99.90;;;;;;1978185;72;21087;-76
2021/08/02 06:58:39;;;;;;;3.92;1.85;;;16.70;99.90;;;;;;1982816;72;21043;-78
2021/08/02 07:01:05;;;;;;;4.00;1.40;;;16.80;99.90;;;;;;1969222;72;21075;-77
2021/08/02 07:03:31;;;;;;;4.35;1.72;;;17.00;99.90;;;;;;1978948;72;21537;-78
2021/08/02 07:05:57;;;;;;;3.77;1.40;;;17.00;99.90;;;;;;1971075;72;21456;-79
2021/08/02 07:08:23;;;;;;;4.53;1.85;;;17.20;99.90;;;;;;1970903;72;21548;-78
2021/08/02 07:10:49;;;;;;;5.40;1.35;;;17.10;99.90;;;;;;1982120;72;21467;-79
2021/08/02 07:13:15;;;;;;;3.17;1.52;;;17.20;99.90;;;;;;1984900;72;21478;-79
2021/08/02 07:15:42;;;;;;;2.17;1.40;;;17.50;99.90;;;;;;1976724;72;21477;-78
2021/08/02 07:18:09;;;;;;;2.87;1.40;;;17.80;99.90;;;;;;1974526;73;21080;-78
2021/08/02 07:20:35;;;;;;;1.42;1.00;;;17.90;99.90;;;;;;1974310;72;21478;-78
2021/08/02 07:23:01;;;;;;;3.27;1.27;;;18.00;99.90;;;;;;1971400;72;21487;-79
2021/08/02 07:25:27;;;;;;;1.72;1.32;;;17.70;99.90;;;;;;1951175;73;21517;-80
2021/08/02 07:27:53;;;;;;;4.87;1.22;;;17.60;99.90;;;;;;1968593;72;21509;-79
2021/08/02 07:30:19;;;;;;;2.42;1.40;;;17.50;99.90;;;;;;1982523;72;21490;-79
2021/08/02 07:32:45;;;;;;;5.75;1.50;;;17.60;99.90;;;;;;1974453;72;21189;-79
2021/08/02 07:35:12;;;;;;;1.37;1.27;;;17.50;99.90;;;;;;1974444;72;21101;-80
2021/08/02 07:37:38;;;;;;;15.45;1.32;;;17.70;99.90;;;;;;1971081;72;21078;-80
2021/08/02 07:40:04;;;;;;;6.37;2.70;;;18.20;99.90;;;;;;1974343;73;21071;-79
2021/08/02 07:42:30;;;;;;;3.10;1.10;;;18.40;99.90;;;;;;1972376;72;21034;-79
2021/08/02 07:44:56;;;;;;;4.05;1.65;;;17.90;99.90;;;;;;1978762;72;21082;-80
2021/08/02 07:47:22;;;;;;;2.00;1.30;;;18.20;99.90;;;;;;1965198;72;21817;-80
2021/08/02 07:49:48;;;;;;;2.40;1.30;;;18.60;99.90;;;;;;1968278;72;21107;-81
2021/08/02 07:52:15;;;;;;;1.45;0.93;;;19.00;99.90;;;;;;1969216;72;21136;-81
2021/08/02 07:54:41;;;;;;;2.42;1.35;;;19.10;99.90;;;;;;1974430;72;21075;-79
2021/08/02 07:57:07;;;;;;;3.75;1.35;;;19.10;99.90;;;;;;1974294;73;21036;-81
2021/08/02 07:59:35;;;;;;;2.22;1.30;;;19.20;99.90;;;;;;1974246;72;21061;-80
2021/08/02 08:02:01;;;;;;;7.47;1.07;;;19.60;99.90;;;;;;1972852;72;21075;-80
2021/08/02 08:04:27;;;;;;;2.05;1.05;;;19.30;99.90;;;;;;1973204;71;21076;-81
2021/08/02 08:06:54;;;;;;;7.33;1.35;;;19.50;99.90;;;;;;1969776;71;21445;-79
2021/08/02 08:09:20;;;;;;;4.28;1.57;;;19.20;99.90;;;;;;1974087;72;21479;-79
2021/08/02 08:11:46;;;;;;;2.85;1.52;;;18.90;99.90;;;;;;1971675;72;21521;-79
2021/08/02 08:14:12;;;;;;;3.15;1.20;;;19.00;99.90;;;;;;1973717;72;21463;-79
2021/08/02 08:16:38;;;;;;;3.22;1.00;;;18.90;99.90;;;;;;1973705;72;21485;-79
2021/08/02 08:19:04;;;;;;;0.80;0.80;;;19.00;99.90;;;;;;1987473;72;21528;-78
2021/08/02 08:21:35;;;;;;;2.40;1.00;;;19.40;99.90;;;;;;1974370;72;21124;-80
2021/08/02 08:23:59;;;;;;;0.95;0.93;;;20.00;99.90;;;;;;1973806;72;21052;-80
2021/08/02 08:26:25;;;;;;;2.47;1.02;;;20.30;99.90;;;;;;1967389;72;21071;-81
2021/08/02 08:28:51;;;;;;;1.77;1.00;;;20.60;99.90;;;;;;1968926;72;21054;-81
2021/08/02 08:31:18;;;;;;;4.97;1.05;;;20.20;99.90;;;;;;1978615;72;21122;-83
2021/08/02 08:33:46;;;;;;;3.00;1.10;;;20.40;99.90;;;;;;1974263;72;21075;-80
2021/08/02 08:36:14;;;;;;;3.27;1.00;;;20.60;99.90;;;;;;1967674;72;21162;-81
2021/08/02 08:38:40;;;;;;;0.72;0.70;;;20.30;99.90;;;;;;1974400;72;21108;-79
2021/08/02 08:41:06;;;;;;;2.10;1.20;;;20.30;99.90;;;;;;1967326;72;21128;-81
2021/08/02 08:43:32;;;;;;;3.60;1.10;;;20.60;99.90;;;;;;1971215;72;21071;-81
2021/08/02 08:45:58;;;;;;;2.17;0.85;;;20.30;99.90;;;;;;1974200;72;21132;-81
2021/08/02 08:48:26;;;;;;;3.98;1.00;;;19.70;99.90;;;;;;1971184;72;21137;-81
2021/08/02 08:50:52;;;;;;;7.87;1.00;;;20.00;99.90;;;;;;1967433;72;21477;-82
2021/08/02 08:53:18;;;;;;;1.40;0.75;;;20.50;99.90;;;;;;1980837;72;21460;-80
2021/08/02 08:55:44;;;;;;;1.32;1.10;;;20.70;99.90;;;;;;1967774;72;21494;-80
2021/08/02 08:58:10;;;;;;;1.30;0.88;;;21.30;99.90;;;;;;1974364;72;21514;-82
2021/08/02 09:00:36;;;;;;;1.57;0.70;;;21.50;99.90;;;;;;1973324;72;21538;-79
2021/08/02 09:03:02;;;;;;;1.70;0.90;;;22.20;99.90;;;;;;1970544;72;21595;-81
2021/08/02 09:05:29;;;;;;;5.85;1.02;;;22.90;99.90;;;;;;1977858;72;21512;-82
2021/08/02 09:07:55;;;;;;;1.62;0.90;;;23.40;99.90;;;;;;1967809;72;21482;-81
2021/08/02 09:10:21;;;;;;;1.70;0.90;;;22.00;99.90;;;;;;1991080;72;21038;-83
2021/08/02 09:12:47;;;;;;;1.37;0.78;;;21.50;99.90;;;;;;1964854;72;21062;-81
2021/08/02 09:15:14;;;;;;;3.70;1.32;;;21.70;99.90;;;;;;1975284;72;21201;-81
2021/08/02 09:17:40;;;;;;;3.02;1.30;;;21.50;99.90;;;;;;1974466;73;21533;-81
2021/08/02 09:20:06;;;;;;;3.22;0.85;;;22.10;99.90;;;;;;1981918;72;21423;-81
2021/08/02 09:22:32;;;;;;;3.52;0.95;;;23.00;99.90;;;;;;1972457;72;21024;-82
2021/08/02 09:24:58;;;;;;;1.77;0.78;;;22.90;99.90;;;;;;1974452;73;21102;-81
2021/08/02 09:27:24;;;;;;;1.55;0.75;;;23.70;99.90;;;;;;1977202;72;21106;-83
2021/08/02 09:29:50;;;;;;;0.98;0.70;;;23.90;99.90;;;;;;1980722;72;21067;-82
2021/08/02 09:32:17;;;;;;;2.83;0.90;;;22.60;99.90;;;;;;1964316;72;21027;-82
2021/08/02 09:34:43;;;;;;;0.93;0.93;;;21.40;99.90;;;;;;1977300;72;21066;-81
2021/08/02 09:37:09;;;;;;;1.87;0.95;;;21.10;99.90;;;;;;1974304;72;21085;-81
2021/08/02 09:39:35;;;;;;;1.27;0.68;;;21.10;99.90;;;;;;1969960;72;21062;-80
2021/08/02 09:42:01;;;;;;;3.12;0.70;;;21.20;99.90;;;;;;1977800;72;21030;-81
2021/08/02 09:44:27;;;;;;;5.12;1.00;;;21.00;99.90;;;;;;1971082;72;21050;-79
2021/08/02 09:46:54;;;;;;;0.70;0.70;;;20.80;99.90;;;;;;1969512;72;21058;-80
2021/08/02 09:49:20;;;;;;;1.80;0.80;;;20.60;99.90;;;;;;1975362;72;21492;-80
2021/08/02 09:51:46;;;;;;;1.55;0.98;;;20.70;99.90;;;;;;1971253;72;21495;-82
2021/08/02 09:54:12;;;;;;;6.75;1.20;;;20.60;99.90;;;;;;1973177;72;21484;-83
2021/08/02 09:56:38;;;;;;;1.77;1.52;;;20.70;99.90;;;;;;1987645;72;21042;-83
2021/08/02 09:59:06;;;;;;;4.55;3.27;;;21.30;99.90;;;;;;1990327;72;21097;-83
2021/08/02 10:01:33;;;;;;;1.62;0.88;;;21.80;99.90;;;;;;1970770;72;21188;-83
2021/08/02 10:04:01;;;;;;;2.42;1.00;;;22.80;99.90;;;;;;1975336;72;21158;-84
2021/08/02 10:06:29;;;;;;;3.50;0.95;;;22.50;99.90;;;;;;1982668;72;21058;-83
2021/08/02 10:08:55;;;;;;;2.12;0.90;;;22.60;99.90;;;;;;1974918;72;21605;-82
2021/08/02 10:11:21;;;;;;;1.57;0.90;;;22.80;99.90;;;;;;1974451;72;21463;-82
2021/08/02 10:13:47;;;;;;;3.08;0.88;;;23.10;99.90;;;;;;1975599;72;21131;-84
2021/08/02 10:16:14;;;;;;;3.42;0.80;;;23.70;99.90;;;;;;1946284;72;21431;-81
2021/08/02 10:18:40;;;;;;;1.32;0.90;;;23.20;99.90;;;;;;1975166;72;21063;-82
2021/08/02 10:21:06;;;;;;;3.45;0.78;;;22.60;99.90;;;;;;1979345;72;21132;-82
2021/08/02 10:23:32;;;;;;;1.70;1.07;;;22.80;99.90;;;;;;1975963;72;21024;-82
2021/08/02 10:25:59;;;;;;;5.35;1.07;;;23.00;99.90;;;;;;1969334;72;21058;-81
2021/08/02 10:28:25;;;;;;;1.57;0.93;;;23.70;99.90;;;;;;1966050;72;21062;-83
2021/08/02 10:30:51;;;;;;;4.85;1.00;;;23.30;99.90;;;;;;1981929;72;21136;-82
2021/08/02 10:33:17;;;;;;;1.00;0.90;;;23.20;99.90;;;;;;1963712;72;21032;-82
2021/08/02 10:35:43;;;;;;;1.15;1.00;;;22.70;99.90;;;;;;1969600;72;21067;-82
2021/08/02 10:38:09;;;;;;;1.00;0.78;;;22.10;99.90;;;;;;1972312;72;21079;-82
2021/08/02 10:40:35;;;;;;;1.47;1.02;;;22.20;99.90;;;;;;1970877;72;21125;-82
2021/08/02 10:43:01;;;;;;;4.85;0.90;;;22.30;99.90;;;;;;1977421;72;21058;-83
2021/08/02 10:45:27;;;;;;;0.80;0.80;;;22.90;99.90;;;;;;1979898;72;21144;-83
2021/08/02 10:47:54;;;;;;;1.27;0.78;;;23.80;99.90;;;;;;1977656;72;21529;-84
2021/08/02 10:50:21;;;;;;;2.17;0.70;;;24.10;99.90;;;;;;1971706;72;21524;-82
2021/08/02 10:52:47;;;;;;;1.25;0.70;;;23.70;99.90;;;;;;1973910;72;21067;-83
2021/08/02 10:55:14;;;;;;;0.90;0.70;;;23.50;99.90;;;;;;1974151;72;21040;-85
2021/08/02 10:57:40;;;;;;;2.92;0.90;;;22.90;99.90;;;;;;1969271;72;21543;-82
2021/08/02 11:00:06;;;;;;;2.47;0.70;;;22.70;99.90;;;;;;1971654;72;21560;-82
2021/08/02 11:02:32;;;;;;;2.83;0.93;;;22.90;99.90;;;;;;1977860;72;21125;-79
2021/08/02 11:04:58;;;;;;;1.00;0.60;;;23.30;99.90;;;;;;1984338;72;21055;-79
2021/08/02 11:07:24;;;;;;;10.05;0.93;;;23.70;99.90;;;;;;1974473;72;21116;-81
2021/08/02 11:09:50;;;;;;;0.75;0.68;;;23.50;99.90;;;;;;1980718;72;21111;-82
2021/08/02 11:12:18;;;;;;;0.90;0.60;;;23.50;99.90;;;;;;1971049;72;21070;-80
2021/08/02 11:14:44;;;;;;;2.05;0.98;;;23.10;99.90;;;;;;1974481;72;21700;-81
2021/08/02 11:17:10;;;;;;;1.12;0.42;;;23.10;99.90;;;;;;1982701;72;21559;-82
2021/08/02 11:19:37;;;;;;;0.72;0.60;;;23.20;99.90;;;;;;1975259;72;21459;-80
2021/08/02 11:22:04;;;;;;;6.70;1.00;;;23.40;99.90;;;;;;1968189;72;21502;-81
2021/08/02 11:24:30;;;;;;;1.17;0.80;;;23.20;99.90;;;;;;1977639;72;21139;-79
2021/08/02 11:26:56;;;;;;;0.72;0.60;;;22.50;99.90;;;;;;1986146;72;21053;-78
2021/08/02 11:29:22;;;;;;;3.52;0.75;;;22.00;99.90;;;;;;1974413;72;21133;-78
2021/08/02 11:31:48;;;;;;;0.60;0.60;;;21.70;99.90;;;;;;1973181;72;21128;-78
2021/08/02 11:34:15;;;;;;;4.12;0.90;;;21.20;99.90;;;;;;1977944;72;21123;-77
2021/08/02 11:36:41;;;;;;;1.00;0.90;;;21.00;99.90;;;;;;1970577;72;21120;-78
2021/08/02 11:39:07;;;;;;;1.50;0.90;;;21.00;99.90;;;;;;1980095;72;21071;-78
2021/08/02 11:41:33;;;;;;;1.20;1.00;;;20.80;99.90;;;;;;1971152;72;21136;-78
2021/08/02 11:43:59;;;;;;;2.20;1.00;;;20.60;99.90;;;;;;1971120;72;21072;-77
2021/08/02 11:46:25;;;;;;;0.78;0.62;;;20.60;99.90;;;;;;1967888;72;21073;-77
2021/08/02 11:48:51;;;;;;;0.82;0.57;;;20.40;99.90;;;;;;1985042;72;21564;-77
2021/08/02 11:51:17;;;;;;;1.65;0.55;;;20.30;99.90;;;;;;1970376;72;21506;-79
2021/08/02 11:53:44;;;;;;;1.57;0.95;;;20.10;99.90;;;;;;1975785;72;21377;-79
2021/08/02 11:56:10;;;;;;;0.50;0.50;;;20.20;99.90;;;;;;1969023;72;21557;-78
2021/08/02 11:58:36;;;;;;;0.85;0.62;;;20.40;99.90;;;;;;1981741;72;21459;-73
2021/08/02 12:01:02;;;;;;;0.82;0.68;;;20.60;99.90;;;;;;1973758;72;21502;-75
2021/08/02 12:03:28;;;;;;;0.88;0.62;;;20.70;99.90;;;;;;1974677;73;21516;-76
2021/08/02 12:05:54;;;;;;;1.72;0.70;;;21.20;99.90;;;;;;1967560;72;21246;-76
2021/08/02 12:08:22;;;;;;;7.22;0.90;;;21.80;99.90;;;;;;1980230;72;21204;-75
2021/08/02 12:10:48;;;;;;;1.20;0.80;;;22.20;99.90;;;;;;1974363;72;21063;-76
2021/08/02 12:13:14;;;;;;;2.58;0.80;;;22.10;99.90;;;;;;1969717;72;21088;-75
2021/08/02 12:15:40;;;;;;;1.77;0.85;;;22.60;99.90;;;;;;1972256;72;21063;-75
2021/08/02 12:18:06;;;;;;;2.22;0.78;;;23.30;99.90;;;;;;1974520;73;21055;-76
2021/08/02 12:20:32;;;;;;;0.85;0.78;;;24.00;99.90;;;;;;1976427;72;21062;-77
2021/08/02 12:22:58;;;;;;;0.55;0.55;;;23.60;99.90;;;;;;1974708;72;21063;-76
2021/08/02 12:25:25;;;;;;;0.85;0.62;;;23.60;99.90;;;;;;1970660;72;21059;-74
2021/08/02 12:27:51;;;;;;;1.37;0.72;;;23.40;99.90;;;;;;1972588;72;21119;-74
2021/08/02 12:30:17;;;;;;;2.60;0.93;;;23.60;99.90;;;;;;1979788;72;21063;-72
2021/08/02 12:32:43;;;;;;;2.05;1.10;;;24.00;99.90;;;;;;1980097;72;21138;-72
2021/08/02 12:35:09;;;;;;;6.70;0.98;;;23.80;99.90;;;;;;1974436;72;21075;-73
2021/08/02 12:37:35;;;;;;;4.17;0.90;;;23.70;99.90;;;;;;1973026;72;21027;-74
2021/08/02 12:40:02;;;;;;;4.55;0.82;;;23.40;99.90;;;;;;1970048;72;21128;-72